createdAt,value
2016-06-22T00:00:36.384Z,0
2016-06-22T00:01:36.390Z,0
2016-06-22T00:02:36.409Z,0
2016-06-22T00:03:35.821Z,0
2016-06-22T00:04:36.417Z,0
2016-06-22T00:05:37.047Z,0
2016-06-22T00:06:36.438Z,0
2016-06-22T00:07:37.650Z,0
2016-06-22T00:08:35.878Z,0
2016-06-22T00:09:37.075Z,0
2016-06-22T00:10:36.475Z,0
2016-06-22T00:11:37.086Z,0
2016-06-22T00:12:37.693Z,0
2016-06-22T00:13:37.118Z,0
2016-06-22T00:14:35.920Z,0
2016-06-22T00:15:36.533Z,0
2016-06-22T00:16:36.549Z,0
2016-06-22T00:17:35.953Z,0
2016-06-22T00:18:36.603Z,0
2016-06-22T00:19:36.583Z,0
2016-06-22T00:20:36.582Z,0
2016-06-22T00:21:36.613Z,0
2016-06-22T00:22:36.610Z,0
2016-06-22T00:23:36.629Z,0
2016-06-22T00:24:36.044Z,0
2016-06-22T00:25:36.632Z,0
2016-06-22T00:26:36.058Z,0
2016-06-22T00:27:36.091Z,0
2016-06-22T00:28:37.283Z,0
2016-06-22T00:29:37.890Z,0
2016-06-22T00:30:36.697Z,0
2016-06-22T00:31:36.700Z,0
2016-06-22T00:32:37.316Z,0
2016-06-22T00:33:37.347Z,0
2016-06-22T00:34:37.323Z,0
2016-06-22T00:35:37.381Z,0
2016-06-22T00:36:37.360Z,0
2016-06-22T00:37:37.967Z,0
2016-06-22T00:38:36.770Z,0
2016-06-22T00:39:36.802Z,0
2016-06-22T00:40:37.419Z,0
2016-06-22T00:41:37.406Z,0
2016-06-22T00:42:36.818Z,0
2016-06-22T00:43:38.029Z,0
2016-06-22T00:44:36.242Z,0
2016-06-22T00:45:36.246Z,0
2016-06-22T00:46:37.502Z,0
2016-06-22T00:47:37.466Z,0
2016-06-22T00:48:38.089Z,0
2016-06-22T00:49:36.895Z,0
2016-06-22T00:50:36.900Z,0
2016-06-22T00:51:37.513Z,0
2016-06-22T00:52:37.521Z,0
2016-06-22T00:53:36.929Z,0
2016-06-22T00:54:36.371Z,0
2016-06-22T00:55:36.952Z,0
2016-06-22T00:56:36.389Z,0
2016-06-22T00:57:36.987Z,0
2016-06-22T00:58:36.380Z,0
2016-06-22T00:59:37.015Z,0
2016-06-22T01:00:38.213Z,0
2016-06-22T01:01:37.613Z,0
2016-06-22T01:02:36.437Z,0
2016-06-22T01:03:38.273Z,0
2016-06-22T01:04:36.446Z,0
2016-06-22T01:05:37.062Z,0
2016-06-22T01:06:37.065Z,0
2016-06-22T01:07:37.093Z,0
2016-06-22T01:08:37.089Z,0
2016-06-22T01:09:37.715Z,0
2016-06-22T01:10:37.173Z,0
2016-06-22T01:11:37.722Z,0
2016-06-22T01:12:37.739Z,0
2016-06-22T01:13:37.151Z,0
2016-06-22T01:14:36.559Z,0
2016-06-22T01:15:37.758Z,0
2016-06-22T01:16:38.356Z,0
2016-06-22T01:17:37.188Z,0
2016-06-22T01:18:36.600Z,0
2016-06-22T01:19:36.598Z,0
2016-06-22T01:20:37.803Z,0
2016-06-22T01:21:37.225Z,0
2016-06-22T01:22:37.223Z,0
2016-06-22T01:23:37.251Z,0
2016-06-22T01:24:37.261Z,0
2016-06-22T01:25:37.274Z,0
2016-06-22T01:26:37.292Z,0
2016-06-22T01:27:37.304Z,0
2016-06-22T01:28:36.691Z,0
2016-06-22T01:29:37.916Z,0
2016-06-22T01:30:38.513Z,0
2016-06-22T01:31:37.927Z,0
2016-06-22T01:32:37.952Z,0
2016-06-22T01:33:37.356Z,0
2016-06-22T01:34:38.568Z,0
2016-06-22T01:35:38.581Z,0
2016-06-22T01:36:37.988Z,0
2016-06-22T01:37:38.577Z,0
2016-06-22T01:38:38.611Z,0
2016-06-22T01:39:37.432Z,0
2016-06-22T01:40:37.422Z,0
2016-06-22T01:41:36.842Z,0
2016-06-22T01:42:37.449Z,0
2016-06-22T01:43:38.050Z,0
2016-06-22T01:44:38.674Z,0
2016-06-22T01:45:38.081Z,0
2016-06-22T01:46:38.077Z,0
2016-06-22T01:47:38.120Z,0
2016-06-22T01:48:37.519Z,0
2016-06-22T01:49:37.530Z,0
2016-06-22T01:50:37.531Z,0
2016-06-22T01:51:36.945Z,0
2016-06-22T01:52:38.152Z,0
2016-06-22T01:53:38.163Z,0
2016-06-22T01:54:38.186Z,0
2016-06-22T01:55:38.191Z,0
2016-06-22T01:56:37.592Z,0
2016-06-22T01:57:37.598Z,0
2016-06-22T01:58:37.007Z,0
2016-06-22T01:59:37.015Z,0
2016-06-22T02:00:37.030Z,0
2016-06-22T02:01:38.835Z,0
2016-06-22T02:02:38.274Z,0
2016-06-22T02:03:38.872Z,0
2016-06-22T02:04:38.869Z,0
2016-06-22T02:05:38.282Z,0
2016-06-22T02:06:37.110Z,0
2016-06-22T02:07:37.694Z,0
2016-06-22T02:08:38.312Z,0
2016-06-22T02:09:38.941Z,0
2016-06-22T02:10:38.979Z,0
2016-06-22T02:11:38.346Z,0
2016-06-22T02:12:37.155Z,0
2016-06-22T02:13:38.979Z,0
2016-06-22T02:14:38.381Z,0
2016-06-22T02:15:37.788Z,0
2016-06-22T02:16:37.210Z,0
2016-06-22T02:17:38.407Z,0
2016-06-22T02:18:38.420Z,0
2016-06-22T02:19:38.423Z,0
2016-06-22T02:20:37.851Z,0
2016-06-22T02:21:38.451Z,0
2016-06-22T02:22:38.469Z,0
2016-06-22T02:23:37.885Z,0
2016-06-22T02:24:37.883Z,0
2016-06-22T02:25:38.480Z,0
2016-06-22T02:26:38.507Z,0
2016-06-22T02:27:37.909Z,0
2016-06-22T02:28:37.323Z,0
2016-06-22T02:29:37.939Z,0
2016-06-22T02:30:38.557Z,0
2016-06-22T02:31:38.554Z,0
2016-06-22T02:32:39.154Z,0
2016-06-22T02:33:37.386Z,0
2016-06-22T02:34:39.174Z,0
2016-06-22T02:35:37.996Z,0
2016-06-22T02:36:38.005Z,0
2016-06-22T02:37:38.013Z,0
2016-06-22T02:38:37.423Z,0
2016-06-22T02:39:38.650Z,0
2016-06-22T02:40:38.643Z,0
2016-06-22T02:41:37.462Z,0
2016-06-22T02:42:38.083Z,0
2016-06-22T02:43:38.069Z,0
2016-06-22T02:44:38.696Z,0
2016-06-22T02:45:37.510Z,0
2016-06-22T02:46:38.707Z,0
2016-06-22T02:47:38.727Z,0
2016-06-22T02:48:38.738Z,0
2016-06-22T02:49:38.732Z,0
2016-06-22T02:50:38.743Z,0
2016-06-22T02:51:38.169Z,0
2016-06-22T02:52:38.763Z,0
2016-06-22T02:53:37.585Z,0
2016-06-22T02:54:38.791Z,0
2016-06-22T02:55:39.390Z,0
2016-06-22T02:56:38.805Z,0
2016-06-22T02:57:38.816Z,0
2016-06-22T02:58:38.821Z,0
2016-06-22T02:59:37.641Z,0
2016-06-22T03:00:38.260Z,0
2016-06-22T03:01:38.851Z,0
2016-06-22T03:02:38.270Z,0
2016-06-22T03:03:38.281Z,0
2016-06-22T03:04:39.480Z,0
2016-06-22T03:05:38.311Z,0
2016-06-22T03:06:38.910Z,0
2016-06-22T03:07:38.320Z,0
2016-06-22T03:08:38.945Z,0
2016-06-22T03:09:37.754Z,0
2016-06-22T03:10:38.401Z,0
2016-06-22T03:11:37.779Z,0
2016-06-22T03:12:37.787Z,0
2016-06-22T03:13:38.987Z,0
2016-06-22T03:14:38.993Z,0
2016-06-22T03:15:38.406Z,0
2016-06-22T03:16:39.003Z,0
2016-06-22T03:17:39.027Z,0
2016-06-22T03:18:39.027Z,0
2016-06-22T03:19:39.029Z,0
2016-06-22T03:20:39.051Z,0
2016-06-22T03:21:38.465Z,0
2016-06-22T03:22:38.483Z,0
2016-06-22T03:23:37.918Z,0
2016-06-22T03:24:38.491Z,0
2016-06-22T03:25:39.703Z,0
2016-06-22T03:26:38.538Z,0
2016-06-22T03:27:39.746Z,0
2016-06-22T03:28:39.146Z,0
2016-06-22T03:29:39.750Z,0
2016-06-22T03:30:38.581Z,0
2016-06-22T03:31:38.574Z,0
2016-06-22T03:32:39.185Z,0
2016-06-22T03:33:39.796Z,0
2016-06-22T03:34:38.598Z,0
2016-06-22T03:35:39.218Z,0
2016-06-22T03:36:38.630Z,0
2016-06-22T03:37:39.228Z,0
2016-06-22T03:38:39.245Z,0
2016-06-22T03:39:39.252Z,0
2016-06-22T03:40:38.062Z,0
2016-06-22T03:41:39.287Z,0
2016-06-22T03:42:38.698Z,0
2016-06-22T03:43:38.092Z,0
2016-06-22T03:44:38.722Z,0
2016-06-22T03:45:39.327Z,0
2016-06-22T03:46:39.319Z,0
2016-06-22T03:47:39.345Z,0
2016-06-22T03:48:38.154Z,4
2016-06-22T03:49:39.362Z,4
2016-06-22T03:50:39.955Z,4
2016-06-22T03:51:38.797Z,4
2016-06-22T03:52:38.187Z,4
2016-06-22T03:53:39.407Z,4
2016-06-22T03:54:39.423Z,4
2016-06-22T03:55:39.437Z,4
2016-06-22T03:56:38.241Z,4
2016-06-22T03:57:38.840Z,4
2016-06-22T03:58:38.883Z,4
2016-06-22T03:59:39.481Z,4
2016-06-22T04:00:40.097Z,0
2016-06-22T04:01:40.092Z,0
2016-06-22T04:02:38.289Z,0
2016-06-22T04:03:39.514Z,0
2016-06-22T04:04:38.331Z,4
2016-06-22T04:05:38.347Z,4
2016-06-22T04:06:38.948Z,4
2016-06-22T04:07:38.347Z,4
2016-06-22T04:08:38.954Z,4
2016-06-22T04:09:39.590Z,4
2016-06-22T04:10:39.630Z,4
2016-06-22T04:11:39.008Z,4
2016-06-22T04:12:39.603Z,4
2016-06-22T04:13:39.008Z,8
2016-06-22T04:14:39.030Z,4
2016-06-22T04:15:39.637Z,4
2016-06-22T04:16:39.058Z,4
2016-06-22T04:17:40.249Z,8
2016-06-22T04:18:39.654Z,8
2016-06-22T04:19:39.663Z,8
2016-06-22T04:20:38.493Z,12
2016-06-22T04:21:39.091Z,12
2016-06-22T04:22:39.114Z,16
2016-06-22T04:23:40.324Z,16
2016-06-22T04:24:38.525Z,12
2016-06-22T04:25:38.535Z,20
2016-06-22T04:26:40.353Z,20
2016-06-22T04:27:40.349Z,20
2016-06-22T04:28:39.170Z,20
2016-06-22T04:29:38.589Z,20
2016-06-22T04:30:39.188Z,20
2016-06-22T04:31:39.202Z,20
2016-06-22T04:32:39.221Z,16
2016-06-22T04:33:39.210Z,16
2016-06-22T04:34:39.814Z,12
2016-06-22T04:35:39.848Z,8
2016-06-22T04:36:38.648Z,4
2016-06-22T04:37:39.261Z,8
2016-06-22T04:38:38.671Z,8
2016-06-22T04:39:39.875Z,8
2016-06-22T04:40:39.903Z,16
2016-06-22T04:41:39.919Z,16
2016-06-22T04:42:39.319Z,12
2016-06-22T04:43:38.711Z,12
2016-06-22T04:44:39.348Z,8
2016-06-22T04:45:39.342Z,20
2016-06-22T04:46:39.939Z,20
2016-06-22T04:47:38.758Z,16
2016-06-22T04:48:39.979Z,8
2016-06-22T04:49:39.372Z,12
2016-06-22T04:50:38.797Z,12
2016-06-22T04:51:40.594Z,12
2016-06-22T04:52:40.003Z,20
2016-06-22T04:53:38.834Z,20
2016-06-22T04:54:39.436Z,20
2016-06-22T04:55:40.046Z,20
2016-06-22T04:56:40.663Z,20
2016-06-22T04:57:40.071Z,20
2016-06-22T04:58:40.075Z,20
2016-06-22T04:59:40.091Z,20
2016-06-22T05:00:40.703Z,16
2016-06-22T05:01:39.500Z,20
2016-06-22T05:02:40.107Z,20
2016-06-22T05:03:40.131Z,20
2016-06-22T05:04:39.541Z,20
2016-06-22T05:05:40.153Z,24
2016-06-22T05:06:40.807Z,16
2016-06-22T05:07:40.806Z,16
2016-06-22T05:08:38.976Z,16
2016-06-22T05:09:39.603Z,24
2016-06-22T05:10:40.302Z,20
2016-06-22T05:11:39.634Z,20
2016-06-22T05:12:39.659Z,20
2016-06-22T05:13:39.636Z,12
2016-06-22T05:14:39.649Z,12
2016-06-22T05:15:40.244Z,12
2016-06-22T05:16:40.259Z,12
2016-06-22T05:17:39.669Z,12
2016-06-22T05:18:39.084Z,12
2016-06-22T05:19:40.891Z,12
2016-06-22T05:20:40.539Z,12
2016-06-22T05:21:39.955Z,12
2016-06-22T05:22:40.329Z,12
2016-06-22T05:23:39.742Z,12
2016-06-22T05:24:40.354Z,16
2016-06-22T05:25:40.375Z,12
2016-06-22T05:26:40.377Z,12
2016-06-22T05:27:40.372Z,12
2016-06-22T05:28:39.793Z,12
2016-06-22T05:29:40.404Z,12
2016-06-22T05:30:39.205Z,12
2016-06-22T05:31:41.032Z,12
2016-06-22T05:32:39.833Z,8
2016-06-22T05:33:40.461Z,12
2016-06-22T05:34:39.852Z,8
2016-06-22T05:35:39.869Z,12
2016-06-22T05:36:40.475Z,12
2016-06-22T05:37:39.294Z,12
2016-06-22T05:38:39.901Z,12
2016-06-22T05:39:39.894Z,12
2016-06-22T05:40:39.922Z,12
2016-06-22T05:41:39.329Z,16
2016-06-22T05:42:40.524Z,20
2016-06-22T05:43:39.952Z,16
2016-06-22T05:44:40.587Z,16
2016-06-22T05:45:39.969Z,16
2016-06-22T05:46:39.384Z,16
2016-06-22T05:47:39.981Z,8
2016-06-22T05:48:40.614Z,12
2016-06-22T05:49:40.612Z,12
2016-06-22T05:50:40.640Z,12
2016-06-22T05:51:39.423Z,12
2016-06-22T05:52:40.671Z,12
2016-06-22T05:53:40.047Z,12
2016-06-22T05:54:41.275Z,12
2016-06-22T05:55:41.263Z,12
2016-06-22T05:56:40.675Z,8
2016-06-22T05:57:40.099Z,12
2016-06-22T05:58:40.706Z,12
2016-06-22T05:59:40.113Z,20
2016-06-22T06:00:40.109Z,12
2016-06-22T06:01:40.139Z,24
2016-06-22T06:02:39.556Z,12
2016-06-22T06:03:40.147Z,16
2016-06-22T06:04:40.769Z,16
2016-06-22T06:05:39.583Z,16
2016-06-22T06:06:40.771Z,16
2016-06-22T06:07:40.823Z,16
2016-06-22T06:08:40.213Z,20
2016-06-22T06:09:40.813Z,12
2016-06-22T06:10:41.515Z,16
2016-06-22T06:11:40.252Z,16
2016-06-22T06:12:40.848Z,16
2016-06-22T06:13:39.669Z,20
2016-06-22T06:14:40.861Z,16
2016-06-22T06:15:40.880Z,16
2016-06-22T06:16:39.709Z,20
2016-06-22T06:17:40.895Z,16
2016-06-22T06:18:40.326Z,16
2016-06-22T06:19:39.728Z,20
2016-06-22T06:20:40.934Z,16
2016-06-22T06:21:39.752Z,16
2016-06-22T06:22:40.952Z,16
2016-06-22T06:23:39.763Z,20
2016-06-22T06:24:40.393Z,20
2016-06-22T06:25:40.397Z,16
2016-06-22T06:26:39.800Z,24
2016-06-22T06:27:41.027Z,16
2016-06-22T06:28:40.471Z,16
2016-06-22T06:29:39.833Z,20
2016-06-22T06:30:41.066Z,20
2016-06-22T06:31:39.835Z,16
2016-06-22T06:32:41.655Z,16
2016-06-22T06:33:41.657Z,20
2016-06-22T06:34:41.671Z,20
2016-06-22T06:35:41.696Z,16
2016-06-22T06:36:40.503Z,16
2016-06-22T06:37:41.118Z,16
2016-06-22T06:38:40.523Z,20
2016-06-22T06:39:40.535Z,24
2016-06-22T06:40:41.151Z,16
2016-06-22T06:41:40.550Z,16
2016-06-22T06:42:39.958Z,16
2016-06-22T06:43:40.568Z,16
2016-06-22T06:44:40.582Z,16
2016-06-22T06:45:41.189Z,20
2016-06-22T06:46:40.645Z,20
2016-06-22T06:47:41.219Z,16
2016-06-22T06:48:41.226Z,16
2016-06-22T06:49:41.251Z,16
2016-06-22T06:50:41.245Z,20
2016-06-22T06:51:41.254Z,24
2016-06-22T06:52:40.065Z,24
2016-06-22T06:53:41.871Z,24
2016-06-22T06:54:41.878Z,24
2016-06-22T06:55:40.719Z,24
2016-06-22T06:56:40.711Z,20
2016-06-22T06:57:40.727Z,24
2016-06-22T06:58:41.338Z,24
2016-06-22T06:59:41.362Z,20
2016-06-22T07:00:41.348Z,16
2016-06-22T07:01:41.959Z,20
2016-06-22T07:02:41.385Z,20
2016-06-22T07:03:41.609Z,24
2016-06-22T07:04:41.395Z,16
2016-06-22T07:05:40.823Z,16
2016-06-22T07:06:41.407Z,16
2016-06-22T07:07:41.421Z,20
2016-06-22T07:08:40.835Z,16
2016-06-22T07:09:41.460Z,16
2016-06-22T07:10:40.890Z,12
2016-06-22T07:11:41.457Z,16
2016-06-22T07:12:40.882Z,12
2016-06-22T07:13:41.486Z,16
2016-06-22T07:14:40.329Z,16
2016-06-22T07:15:41.507Z,12
2016-06-22T07:16:42.103Z,8
2016-06-22T07:17:41.609Z,12
2016-06-22T07:18:42.141Z,12
2016-06-22T07:19:42.134Z,12
2016-06-22T07:20:42.208Z,12
2016-06-22T07:21:42.110Z,16
2016-06-22T07:22:41.589Z,12
2016-06-22T07:23:41.595Z,12
2016-06-22T07:24:41.061Z,12
2016-06-22T07:25:43.906Z,12
2016-06-22T07:26:42.222Z,12
2016-06-22T07:27:41.183Z,16
2016-06-22T07:28:40.590Z,12
2016-06-22T07:29:40.462Z,12
2016-06-22T07:30:41.315Z,12
2016-06-22T07:31:41.357Z,12
2016-06-22T07:32:41.522Z,12
2016-06-22T07:33:40.686Z,12
2016-06-22T07:34:41.228Z,12
2016-06-22T07:35:41.845Z,12
2016-06-22T07:36:42.322Z,12
2016-06-22T07:37:41.273Z,12
2016-06-22T07:38:41.795Z,12
2016-06-22T07:39:41.991Z,12
2016-06-22T07:40:41.989Z,12
2016-06-22T07:41:41.808Z,12
2016-06-22T07:42:41.197Z,12
2016-06-22T07:43:41.210Z,12
2016-06-22T07:44:42.429Z,12
2016-06-22T07:45:42.147Z,12
2016-06-22T07:46:41.235Z,12
2016-06-22T07:47:42.446Z,8
2016-06-22T07:48:41.870Z,8
2016-06-22T07:49:41.879Z,8
2016-06-22T07:50:40.680Z,8
2016-06-22T07:51:42.479Z,8
2016-06-22T07:52:41.302Z,12
2016-06-22T07:53:41.913Z,12
2016-06-22T07:54:41.322Z,12
2016-06-22T07:55:41.949Z,16
2016-06-22T07:56:41.934Z,16
2016-06-22T07:57:41.966Z,16
2016-06-22T07:58:41.970Z,16
2016-06-22T07:59:42.582Z,16
2016-06-22T08:00:41.975Z,16
2016-06-22T08:01:41.391Z,16
2016-06-22T08:02:42.015Z,16
2016-06-22T08:03:40.799Z,16
2016-06-22T08:04:40.831Z,16
2016-06-22T08:05:40.845Z,12
2016-06-22T08:06:41.459Z,12
2016-06-22T08:07:42.050Z,12
2016-06-22T08:08:41.480Z,12
2016-06-22T08:09:42.675Z,8
2016-06-22T08:10:42.094Z,20
2016-06-22T08:11:42.095Z,20
2016-06-22T08:12:41.526Z,16
2016-06-22T08:13:40.931Z,16
2016-06-22T08:14:42.737Z,12
2016-06-22T08:15:42.821Z,16
2016-06-22T08:16:41.584Z,20
2016-06-22T08:17:42.782Z,16
2016-06-22T08:18:40.948Z,16
2016-06-22T08:19:41.016Z,12
2016-06-22T08:20:42.200Z,12
2016-06-22T08:21:42.198Z,8
2016-06-22T08:22:42.219Z,8
2016-06-22T08:23:42.831Z,8
2016-06-22T08:24:41.636Z,12
2016-06-22T08:25:42.242Z,8
2016-06-22T08:26:42.281Z,12
2016-06-22T08:27:42.849Z,12
2016-06-22T08:28:42.297Z,12
2016-06-22T08:29:41.690Z,8
2016-06-22T08:30:41.110Z,12
2016-06-22T08:31:41.710Z,12
2016-06-22T08:32:42.316Z,12
2016-06-22T08:33:41.751Z,8
2016-06-22T08:34:41.745Z,12
2016-06-22T08:35:41.735Z,16
2016-06-22T08:36:42.953Z,12
2016-06-22T08:37:42.995Z,20
2016-06-22T08:38:41.175Z,20
2016-06-22T08:39:41.791Z,24
2016-06-22T08:40:41.816Z,16
2016-06-22T08:41:41.216Z,16
2016-06-22T08:42:41.841Z,24
2016-06-22T08:43:43.040Z,16
2016-06-22T08:44:42.445Z,20
2016-06-22T08:45:42.466Z,20
2016-06-22T08:46:41.253Z,12
2016-06-22T08:47:41.872Z,24
2016-06-22T08:48:43.083Z,24
2016-06-22T08:49:43.088Z,24
2016-06-22T08:50:41.898Z,24
2016-06-22T08:51:41.898Z,24
2016-06-22T08:52:43.121Z,24
2016-06-22T08:53:42.521Z,20
2016-06-22T08:54:41.348Z,24
2016-06-22T08:55:41.949Z,12
2016-06-22T08:56:41.971Z,24
2016-06-22T08:57:41.980Z,24
2016-06-22T08:58:43.187Z,24
2016-06-22T08:59:42.023Z,24
2016-06-22T09:00:42.632Z,24
2016-06-22T09:01:42.627Z,24
2016-06-22T09:02:42.628Z,28
2016-06-22T09:03:42.637Z,28
2016-06-22T09:04:42.658Z,24
2016-06-22T09:05:41.710Z,32
2016-06-22T09:06:42.665Z,32
2016-06-22T09:07:43.293Z,32
2016-06-22T09:08:42.695Z,28
2016-06-22T09:09:42.109Z,24
2016-06-22T09:10:42.710Z,24
2016-06-22T09:11:42.728Z,24
2016-06-22T09:12:43.330Z,24
2016-06-22T09:13:43.347Z,28
2016-06-22T09:14:42.150Z,24
2016-06-22T09:15:42.188Z,24
2016-06-22T09:16:42.190Z,24
2016-06-22T09:17:42.190Z,24
2016-06-22T09:18:43.402Z,24
2016-06-22T09:19:42.215Z,24
2016-06-22T09:20:41.629Z,28
2016-06-22T09:21:42.826Z,24
2016-06-22T09:22:41.638Z,28
2016-06-22T09:23:43.442Z,24
2016-06-22T09:24:42.858Z,24
2016-06-22T09:25:42.279Z,24
2016-06-22T09:26:41.688Z,28
2016-06-22T09:27:42.902Z,28
2016-06-22T09:28:41.706Z,28
2016-06-22T09:29:43.501Z,24
2016-06-22T09:30:42.912Z,24
2016-06-22T09:31:42.926Z,28
2016-06-22T09:32:42.364Z,36
2016-06-22T09:33:42.963Z,28
2016-06-22T09:34:42.368Z,28
2016-06-22T09:35:43.405Z,28
2016-06-22T09:36:43.578Z,24
2016-06-22T09:37:42.983Z,28
2016-06-22T09:38:42.998Z,28
2016-06-22T09:39:42.419Z,24
2016-06-22T09:40:43.623Z,24
2016-06-22T09:41:43.038Z,28
2016-06-22T09:42:42.439Z,28
2016-06-22T09:43:42.473Z,20
2016-06-22T09:44:42.495Z,16
2016-06-22T09:45:43.070Z,20
2016-06-22T09:46:42.506Z,16
2016-06-22T09:47:43.103Z,16
2016-06-22T09:48:43.101Z,20
2016-06-22T09:49:41.935Z,20
2016-06-22T09:50:43.734Z,20
2016-06-22T09:51:43.148Z,20
2016-06-22T09:52:43.750Z,24
2016-06-22T09:53:43.167Z,24
2016-06-22T09:54:43.164Z,28
2016-06-22T09:55:43.195Z,36
2016-06-22T09:56:43.172Z,28
2016-06-22T09:57:42.595Z,40
2016-06-22T09:58:42.606Z,28
2016-06-22T09:59:42.605Z,28
2016-06-22T10:00:43.230Z,28
2016-06-22T10:01:42.626Z,40
2016-06-22T10:02:42.639Z,36
2016-06-22T10:03:43.257Z,40
2016-06-22T10:04:43.269Z,32
2016-06-22T10:05:43.267Z,32
2016-06-22T10:06:42.093Z,36
2016-06-22T10:07:43.299Z,24
2016-06-22T10:08:43.295Z,24
2016-06-22T10:09:43.903Z,24
2016-06-22T10:10:42.734Z,24
2016-06-22T10:11:42.842Z,24
2016-06-22T10:12:42.740Z,24
2016-06-22T10:13:43.350Z,20
2016-06-22T10:14:42.782Z,20
2016-06-22T10:15:43.373Z,24
2016-06-22T10:16:43.389Z,36
2016-06-22T10:17:43.393Z,32
2016-06-22T10:18:43.406Z,40
2016-06-22T10:19:43.425Z,40
2016-06-22T10:20:42.824Z,40
2016-06-22T10:21:43.440Z,40
2016-06-22T10:22:43.454Z,28
2016-06-22T10:23:44.051Z,36
2016-06-22T10:24:43.472Z,32
2016-06-22T10:25:42.866Z,24
2016-06-22T10:26:42.899Z,24
2016-06-22T10:27:42.896Z,24
2016-06-22T10:28:44.109Z,40
2016-06-22T10:29:43.523Z,40
2016-06-22T10:30:42.320Z,28
2016-06-22T10:31:44.131Z,32
2016-06-22T10:32:44.150Z,40
2016-06-22T10:33:44.183Z,36
2016-06-22T10:34:43.574Z,36
2016-06-22T10:35:43.589Z,24
2016-06-22T10:36:42.966Z,24
2016-06-22T10:37:43.601Z,24
2016-06-22T10:38:44.204Z,28
2016-06-22T10:39:44.214Z,32
2016-06-22T10:40:44.239Z,32
2016-06-22T10:41:44.227Z,32
2016-06-22T10:42:43.051Z,32
2016-06-22T10:43:43.050Z,36
2016-06-22T10:44:43.666Z,36
2016-06-22T10:45:44.276Z,32
2016-06-22T10:46:43.168Z,32
2016-06-22T10:47:43.118Z,32
2016-06-22T10:48:43.154Z,32
2016-06-22T10:49:42.541Z,32
2016-06-22T10:50:44.343Z,32
2016-06-22T10:51:44.347Z,32
2016-06-22T10:52:44.346Z,36
2016-06-22T10:53:43.776Z,36
2016-06-22T10:54:43.779Z,36
2016-06-22T10:55:43.187Z,36
2016-06-22T10:56:44.410Z,36
2016-06-22T10:57:43.210Z,36
2016-06-22T10:58:42.623Z,36
2016-06-22T10:59:43.226Z,36
2016-06-22T11:00:44.438Z,36
2016-06-22T11:01:44.433Z,36
2016-06-22T11:02:43.847Z,36
2016-06-22T11:03:43.858Z,40
2016-06-22T11:04:43.887Z,40
2016-06-22T11:05:43.914Z,40
2016-06-22T11:06:43.946Z,40
2016-06-22T11:07:43.904Z,40
2016-06-22T11:08:43.341Z,40
2016-06-22T11:09:44.544Z,40
2016-06-22T11:10:44.550Z,44
2016-06-22T11:11:43.419Z,40
2016-06-22T11:12:43.940Z,40
2016-06-22T11:13:43.988Z,36
2016-06-22T11:14:43.379Z,40
2016-06-22T11:15:43.397Z,40
2016-06-22T11:17:44.383Z,40
2016-06-22T11:18:44.022Z,40
2016-06-22T11:19:44.043Z,40
2016-06-22T11:20:44.042Z,40
2016-06-22T11:21:44.047Z,40
2016-06-22T11:22:43.467Z,44
2016-06-22T11:23:44.066Z,44
2016-06-22T11:24:43.481Z,44
2016-06-22T11:25:44.683Z,44
2016-06-22T11:26:44.096Z,40
2016-06-22T11:27:44.124Z,40
2016-06-22T11:28:44.140Z,36
2016-06-22T11:29:44.731Z,40
2016-06-22T11:30:44.155Z,40
2016-06-22T11:31:44.149Z,44
2016-06-22T11:32:44.190Z,40
2016-06-22T11:33:43.580Z,44
2016-06-22T11:34:44.790Z,44
2016-06-22T11:35:44.219Z,40
2016-06-22T11:36:44.234Z,40
2016-06-22T11:37:43.625Z,36
2016-06-22T11:38:44.234Z,28
2016-06-22T11:39:44.235Z,32
2016-06-22T11:40:44.241Z,32
2016-06-22T11:41:44.864Z,24
2016-06-22T11:42:43.714Z,28
2016-06-22T11:43:44.289Z,40
2016-06-22T11:44:43.682Z,28
2016-06-22T11:45:44.913Z,32
2016-06-22T11:46:44.318Z,36
2016-06-22T11:47:44.327Z,36
2016-06-22T11:48:44.338Z,32
2016-06-22T11:49:44.965Z,52
2016-06-22T11:50:44.939Z,36
2016-06-22T11:51:44.372Z,28
2016-06-22T11:52:43.771Z,32
2016-06-22T11:53:43.808Z,32
2016-06-22T11:54:44.395Z,36
2016-06-22T11:55:43.821Z,32
2016-06-22T11:56:44.422Z,40
2016-06-22T11:57:44.464Z,36
2016-06-22T11:58:45.043Z,32
2016-06-22T11:59:44.452Z,32
2016-06-22T12:00:45.077Z,24
2016-06-22T12:01:44.926Z,24
2016-06-22T12:02:43.274Z,24
2016-06-22T12:03:43.902Z,24
2016-06-22T12:04:44.522Z,24
2016-06-22T12:05:45.124Z,44
2016-06-22T12:06:45.158Z,24
2016-06-22T12:07:45.138Z,36
2016-06-22T12:08:43.358Z,44
2016-06-22T12:09:43.367Z,24
2016-06-22T12:10:43.972Z,24
2016-06-22T12:11:44.141Z,24
2016-06-22T12:12:44.601Z,28
2016-06-22T12:13:44.625Z,24
2016-06-22T12:14:44.013Z,44
2016-06-22T12:15:44.041Z,48
2016-06-22T12:16:44.642Z,28
2016-06-22T12:17:43.472Z,48
2016-06-22T12:18:45.250Z,44
2016-06-22T12:19:44.666Z,24
2016-06-22T12:20:44.077Z,24
2016-06-22T12:21:43.490Z,44
2016-06-22T12:22:43.492Z,32
2016-06-22T12:23:43.551Z,48
2016-06-22T12:24:45.332Z,48
2016-06-22T12:25:44.147Z,48
2016-06-22T12:26:44.744Z,44
2016-06-22T12:27:43.567Z,44
2016-06-22T12:28:44.183Z,48
2016-06-22T12:29:44.777Z,40
2016-06-22T12:30:44.791Z,32
2016-06-22T12:31:45.399Z,32
2016-06-22T12:32:45.398Z,28
2016-06-22T12:33:44.817Z,28
2016-06-22T12:34:44.206Z,32
2016-06-22T12:35:44.222Z,32
2016-06-22T12:36:44.863Z,40
2016-06-22T12:37:44.267Z,32
2016-06-22T12:38:45.450Z,24
2016-06-22T12:39:45.494Z,20
2016-06-22T12:40:44.280Z,24
2016-06-22T12:41:45.490Z,28
2016-06-22T12:42:44.891Z,28
2016-06-22T12:43:44.342Z,24
2016-06-22T12:44:44.950Z,24
2016-06-22T12:45:45.554Z,24
2016-06-22T12:46:44.353Z,24
2016-06-22T12:47:44.387Z,24
2016-06-22T12:48:43.782Z,20
2016-06-22T12:49:44.394Z,24
2016-06-22T12:50:44.390Z,36
2016-06-22T12:51:45.583Z,36
2016-06-22T12:52:45.063Z,40
2016-06-22T12:53:44.444Z,40
2016-06-22T12:54:44.444Z,44
2016-06-22T12:55:44.450Z,40
2016-06-22T12:56:45.047Z,32
2016-06-22T12:57:45.673Z,36
2016-06-22T12:58:45.107Z,32
2016-06-22T12:59:45.689Z,36
2016-06-22T13:00:45.095Z,40
2016-06-22T13:01:43.904Z,36
2016-06-22T13:02:45.112Z,40
2016-06-22T13:03:44.528Z,36
2016-06-22T13:04:44.543Z,40
2016-06-22T13:05:45.167Z,36
2016-06-22T13:06:44.565Z,36
2016-06-22T13:07:43.973Z,40
2016-06-22T13:08:44.577Z,36
2016-06-22T13:09:44.613Z,36
2016-06-22T13:10:45.838Z,40
2016-06-22T13:11:45.257Z,40
2016-06-22T13:12:45.236Z,40
2016-06-22T13:13:45.826Z,40
2016-06-22T13:14:45.854Z,36
2016-06-22T13:15:44.649Z,40
2016-06-22T13:16:44.066Z,40
2016-06-22T13:17:45.882Z,40
2016-06-22T13:18:44.090Z,40
2016-06-22T13:19:44.110Z,36
2016-06-22T13:20:44.695Z,36
2016-06-22T13:21:44.750Z,36
2016-06-22T13:22:45.967Z,36
2016-06-22T13:23:44.155Z,36
2016-06-22T13:24:44.757Z,40
2016-06-22T13:25:45.374Z,36
2016-06-22T13:26:45.983Z,36
2016-06-22T13:27:44.800Z,36
2016-06-22T13:28:46.010Z,40
2016-06-22T13:29:45.993Z,40
2016-06-22T13:30:45.413Z,40
2016-06-22T13:31:44.236Z,40
2016-06-22T13:32:45.166Z,40
2016-06-22T13:33:44.839Z,40
2016-06-22T13:34:45.454Z,40
2016-06-22T13:35:46.052Z,36
2016-06-22T13:36:45.467Z,36
2016-06-22T13:37:44.891Z,36
2016-06-22T13:38:44.917Z,32
2016-06-22T13:39:46.099Z,28
2016-06-22T13:40:46.122Z,28
2016-06-22T13:41:44.912Z,32
2016-06-22T13:42:46.149Z,32
2016-06-22T13:43:44.968Z,36
2016-06-22T13:44:44.386Z,36
2016-06-22T13:45:44.983Z,32
2016-06-22T13:46:44.976Z,32
2016-06-22T13:47:46.079Z,32
2016-06-22T13:48:45.604Z,32
2016-06-22T13:49:44.426Z,28
2016-06-22T13:50:45.026Z,28
2016-06-22T13:51:45.646Z,28
2016-06-22T13:52:46.237Z,28
2016-06-22T13:53:45.640Z,32
2016-06-22T13:54:44.463Z,32
2016-06-22T13:55:45.067Z,32
2016-06-22T13:56:45.076Z,28
2016-06-22T13:57:45.696Z,32
2016-06-22T13:58:46.319Z,28
2016-06-22T13:59:44.525Z,28
2016-06-22T14:00:46.343Z,24
2016-06-22T14:01:45.745Z,24
2016-06-22T14:02:45.750Z,28
2016-06-22T14:03:45.773Z,28
2016-06-22T14:04:45.224Z,28
2016-06-22T14:05:45.183Z,28
2016-06-22T14:06:45.799Z,24
2016-06-22T14:07:46.411Z,24
2016-06-22T14:08:46.404Z,24
2016-06-22T14:09:45.823Z,24
2016-06-22T14:10:45.251Z,24
2016-06-22T14:11:44.806Z,24
2016-06-22T14:12:45.257Z,28
2016-06-22T14:13:45.277Z,28
2016-06-22T14:14:45.280Z,24
2016-06-22T14:15:45.908Z,28
2016-06-22T14:16:45.294Z,28
2016-06-22T14:17:45.911Z,24
2016-06-22T14:18:44.722Z,24
2016-06-22T14:19:45.347Z,24
2016-06-22T14:20:44.747Z,24
2016-06-22T14:21:46.561Z,24
2016-06-22T14:22:45.976Z,24
2016-06-22T14:23:45.367Z,24
2016-06-22T14:24:45.986Z,24
2016-06-22T14:25:45.396Z,24
2016-06-22T14:26:45.403Z,24